sensor_id;sensor_type;location;lat;lon;timestamp;P1;durP1;ratioP1;P2;durP2;ratioP2
59054;SDS011;44845;51.444;7.460;2023-12-20T00:00:12;13.38;;;8.88;;
59054;SDS011;44845;51.444;7.460;2023-12-20T00:02:41;10.07;;;7.97;;
59054;SDS011;44845;51.444;7.460;2023-12-20T00:05:10;11.23;;;7.95;;
59054;SDS011;44845;51.444;7.460;2023-12-20T00:07:35;8.48;;;6.55;;
59054;SDS011;44845;51.444;7.460;2023-12-20T00:10:03;10.63;;;6.00;;
59054;SDS011;44845;51.444;7.460;2023-12-20T00:12:32;9.70;;;6.10;;
59054;SDS011;44845;51.444;7.460;2023-12-20T00:14:57;8.23;;;6.38;;
59054;SDS011;44845;51.444;7.460;2023-12-20T00:17:25;9.48;;;5.88;;
59054;SDS011;44845;51.444;7.460;2023-12-20T00:19:54;9.38;;;6.40;;
59054;SDS011;44845;51.444;7.460;2023-12-20T00:22:20;10.13;;;7.13;;
59054;SDS011;44845;51.444;7.460;2023-12-20T00:24:48;9.57;;;7.00;;
59054;SDS011;44845;51.444;7.460;2023-12-20T00:27:16;10.10;;;7.35;;
59054;SDS011;44845;51.444;7.460;2023-12-20T00:29:47;9.00;;;7.03;;
59054;SDS011;44845;51.444;7.460;2023-12-20T00:32:14;9.63;;;7.05;;
59054;SDS011;44845;51.444;7.460;2023-12-20T00:34:40;11.27;;;8.35;;
59054;SDS011;44845;51.444;7.460;2023-12-20T00:37:05;13.73;;;8.38;;
59054;SDS011;44845;51.444;7.460;2023-12-20T00:39:31;11.05;;;8.00;;
59054;SDS011;44845;51.444;7.460;2023-12-20T00:41:58;12.48;;;8.50;;
59054;SDS011;44845;51.444;7.460;2023-12-20T00:44:23;11.48;;;8.40;;
59054;SDS011;44845;51.444;7.460;2023-12-20T00:46:49;10.95;;;7.90;;
59054;SDS011;44845;51.444;7.460;2023-12-20T00:49:16;12.35;;;7.82;;
59054;SDS011;44845;51.444;7.460;2023-12-20T00:51:41;10.32;;;7.47;;
59054;SDS011;44845;51.444;7.460;2023-12-20T00:54:09;12.20;;;8.07;;
59054;SDS011;44845;51.444;7.460;2023-12-20T00:56:35;11.50;;;7.57;;
59054;SDS011;44845;51.444;7.460;2023-12-20T00:59:00;10.57;;;7.45;;
59054;SDS011;44845;51.444;7.460;2023-12-20T01:01:26;14.52;;;8.57;;
59054;SDS011;44845;51.444;7.460;2023-12-20T01:03:54;12.82;;;8.10;;
59054;SDS011;44845;51.444;7.460;2023-12-20T01:06:20;10.95;;;7.03;;
59054;SDS011;44845;51.444;7.460;2023-12-20T01:08:45;11.35;;;6.90;;
59054;SDS011;44845;51.444;7.460;2023-12-20T01:11:11;13.02;;;6.75;;
59054;SDS011;44845;51.444;7.460;2023-12-20T01:13:36;11.82;;;6.22;;
59054;SDS011;44845;51.444;7.460;2023-12-20T01:16:05;12.07;;;5.60;;
59054;SDS011;44845;51.444;7.460;2023-12-20T01:18:30;13.73;;;5.22;;
59054;SDS011;44845;51.444;7.460;2023-12-20T01:21:02;8.23;;;4.50;;
59054;SDS011;44845;51.444;7.460;2023-12-20T01:23:28;9.40;;;4.78;;
59054;SDS011;44845;51.444;7.460;2023-12-20T01:25:53;11.23;;;4.75;;
59054;SDS011;44845;51.444;7.460;2023-12-20T01:28:19;8.13;;;3.92;;
59054;SDS011;44845;51.444;7.460;2023-12-20T01:30:47;8.50;;;4.07;;
59054;SDS011;44845;51.444;7.460;2023-12-20T01:33:15;9.48;;;4.78;;
59054;SDS011;44845;51.444;7.460;2023-12-20T01:35:44;8.27;;;4.07;;
59054;SDS011;44845;51.444;7.460;2023-12-20T01:38:15;8.68;;;4.90;;
59054;SDS011;44845;51.444;7.460;2023-12-20T01:40:43;10.23;;;4.60;;
59054;SDS011;44845;51.444;7.460;2023-12-20T01:43:09;8.90;;;4.72;;
59054;SDS011;44845;51.444;7.460;2023-12-20T01:45:36;9.23;;;4.32;;
59054;SDS011;44845;51.444;7.460;2023-12-20T01:48:02;12.77;;;4.13;;
59054;SDS011;44845;51.444;7.460;2023-12-20T01:50:29;6.85;;;4.00;;
59054;SDS011;44845;51.444;7.460;2023-12-20T01:52:55;9.57;;;4.60;;
59054;SDS011;44845;51.444;7.460;2023-12-20T01:55:23;10.90;;;5.00;;
59054;SDS011;44845;51.444;7.460;2023-12-20T01:57:49;7.65;;;4.57;;
59054;SDS011;44845;51.444;7.460;2023-12-20T02:00:16;9.55;;;5.30;;
59054;SDS011;44845;51.444;7.460;2023-12-20T02:02:43;9.27;;;4.50;;
59054;SDS011;44845;51.444;7.460;2023-12-20T02:05:10;11.98;;;4.90;;
59054;SDS011;44845;51.444;7.460;2023-12-20T02:07:36;11.20;;;4.85;;
59054;SDS011;44845;51.444;7.460;2023-12-20T02:10:01;9.80;;;3.85;;
59054;SDS011;44845;51.444;7.460;2023-12-20T02:12:27;9.10;;;4.28;;
59054;SDS011;44845;51.444;7.460;2023-12-20T02:14:52;9.02;;;3.67;;
59054;SDS011;44845;51.444;7.460;2023-12-20T02:17:19;11.23;;;3.35;;
59054;SDS011;44845;51.444;7.460;2023-12-20T02:19:45;7.93;;;3.25;;
59054;SDS011;44845;51.444;7.460;2023-12-20T02:22:10;13.70;;;3.60;;
59054;SDS011;44845;51.444;7.460;2023-12-20T02:24:36;7.70;;;2.88;;
59054;SDS011;44845;51.444;7.460;2023-12-20T02:27:02;8.55;;;2.78;;
59054;SDS011;44845;51.444;7.460;2023-12-20T02:29:28;6.45;;;2.63;;
59054;SDS011;44845;51.444;7.460;2023-12-20T02:31:53;6.88;;;2.78;;
59054;SDS011;44845;51.444;7.460;2023-12-20T02:34:18;8.75;;;3.00;;
59054;SDS011;44845;51.444;7.460;2023-12-20T02:36:44;12.45;;;2.95;;
59054;SDS011;44845;51.444;7.460;2023-12-20T02:39:09;9.50;;;2.50;;
59054;SDS011;44845;51.444;7.460;2023-12-20T02:41:34;13.38;;;2.92;;
59054;SDS011;44845;51.444;7.460;2023-12-20T02:44:01;9.68;;;2.58;;
59054;SDS011;44845;51.444;7.460;2023-12-20T02:46:26;8.15;;;2.70;;
59054;SDS011;44845;51.444;7.460;2023-12-20T02:48:52;9.23;;;3.53;;
59054;SDS011;44845;51.444;7.460;2023-12-20T02:51:17;7.50;;;3.45;;
59054;SDS011;44845;51.444;7.460;2023-12-20T02:53:42;7.80;;;2.60;;
59054;SDS011;44845;51.444;7.460;2023-12-20T02:56:08;12.15;;;3.40;;
59054;SDS011;44845;51.444;7.460;2023-12-20T02:58:33;12.68;;;3.85;;
59054;SDS011;44845;51.444;7.460;2023-12-20T03:00:58;12.88;;;3.88;;
59054;SDS011;44845;51.444;7.460;2023-12-20T03:03:24;14.43;;;4.97;;
59054;SDS011;44845;51.444;7.460;2023-12-20T03:05:50;12.50;;;4.47;;
59054;SDS011;44845;51.444;7.460;2023-12-20T03:08:15;13.88;;;4.88;;
59054;SDS011;44845;51.444;7.460;2023-12-20T03:10:40;12.13;;;4.82;;
59054;SDS011;44845;51.444;7.460;2023-12-20T03:13:06;14.13;;;4.85;;
59054;SDS011;44845;51.444;7.460;2023-12-20T03:15:31;11.55;;;4.90;;
59054;SDS011;44845;51.444;7.460;2023-12-20T03:17:56;11.30;;;4.70;;
59054;SDS011;44845;51.444;7.460;2023-12-20T03:20:24;13.65;;;5.00;;
59054;SDS011;44845;51.444;7.460;2023-12-20T03:22:50;17.58;;;5.43;;
59054;SDS011;44845;51.444;7.460;2023-12-20T03:25:16;11.68;;;4.57;;
59054;SDS011;44845;51.444;7.460;2023-12-20T03:27:41;11.38;;;4.45;;
59054;SDS011;44845;51.444;7.460;2023-12-20T03:30:07;13.20;;;4.45;;
59054;SDS011;44845;51.444;7.460;2023-12-20T03:32:32;9.02;;;4.40;;
59054;SDS011;44845;51.444;7.460;2023-12-20T03:34:58;9.88;;;4.53;;
59054;SDS011;44845;51.444;7.460;2023-12-20T03:37:23;10.55;;;3.92;;
59054;SDS011;44845;51.444;7.460;2023-12-20T03:39:48;15.32;;;4.60;;
59054;SDS011;44845;51.444;7.460;2023-12-20T03:42:14;16.83;;;4.45;;
59054;SDS011;44845;51.444;7.460;2023-12-20T03:44:39;11.82;;;4.57;;
59054;SDS011;44845;51.444;7.460;2023-12-20T03:47:05;18.35;;;4.20;;
59054;SDS011;44845;51.444;7.460;2023-12-20T03:49:30;14.00;;;4.13;;
59054;SDS011;44845;51.444;7.460;2023-12-20T03:51:56;18.58;;;4.47;;
59054;SDS011;44845;51.444;7.460;2023-12-20T03:54:21;14.48;;;3.85;;
59054;SDS011;44845;51.444;7.460;2023-12-20T03:56:47;9.50;;;3.70;;
59054;SDS011;44845;51.444;7.460;2023-12-20T03:59:12;8.70;;;3.40;;
59054;SDS011;44845;51.444;7.460;2023-12-20T04:01:37;15.93;;;3.88;;
59054;SDS011;44845;51.444;7.460;2023-12-20T04:04:03;15.00;;;3.85;;
59054;SDS011;44845;51.444;7.460;2023-12-20T04:06:28;11.45;;;3.63;;
59054;SDS011;44845;51.444;7.460;2023-12-20T04:08:54;10.82;;;3.05;;
59054;SDS011;44845;51.444;7.460;2023-12-20T04:11:19;12.25;;;3.55;;
59054;SDS011;44845;51.444;7.460;2023-12-20T04:13:44;10.05;;;3.03;;
59054;SDS011;44845;51.444;7.460;2023-12-20T04:16:10;11.15;;;3.30;;
59054;SDS011;44845;51.444;7.460;2023-12-20T04:18:35;15.60;;;3.42;;
59054;SDS011;44845;51.444;7.460;2023-12-20T04:21:01;11.90;;;3.90;;
59054;SDS011;44845;51.444;7.460;2023-12-20T04:23:26;13.95;;;3.78;;
59054;SDS011;44845;51.444;7.460;2023-12-20T04:25:53;18.90;;;3.72;;
59054;SDS011;44845;51.444;7.460;2023-12-20T04:28:19;13.75;;;4.47;;
59054;SDS011;44845;51.444;7.460;2023-12-20T04:30:44;15.77;;;4.30;;
59054;SDS011;44845;51.444;7.460;2023-12-20T04:33:10;10.38;;;4.13;;
59054;SDS011;44845;51.444;7.460;2023-12-20T04:35:35;18.90;;;4.68;;
59054;SDS011;44845;51.444;7.460;2023-12-20T04:38:00;11.50;;;3.97;;
59054;SDS011;44845;51.444;7.460;2023-12-20T04:40:26;9.82;;;4.45;;
59054;SDS011;44845;51.444;7.460;2023-12-20T04:42:51;14.77;;;4.75;;
59054;SDS011;44845;51.444;7.460;2023-12-20T04:45:16;14.50;;;5.10;;
59054;SDS011;44845;51.444;7.460;2023-12-20T04:47:43;19.13;;;5.68;;
59054;SDS011;44845;51.444;7.460;2023-12-20T04:50:09;9.60;;;4.65;;
59054;SDS011;44845;51.444;7.460;2023-12-20T04:52:34;11.82;;;5.45;;
59054;SDS011;44845;51.444;7.460;2023-12-20T04:55:00;19.23;;;5.47;;
59054;SDS011;44845;51.444;7.460;2023-12-20T04:57:26;12.43;;;4.93;;
59054;SDS011;44845;51.444;7.460;2023-12-20T04:59:51;18.73;;;5.20;;
59054;SDS011;44845;51.444;7.460;2023-12-20T05:02:17;14.63;;;5.13;;
59054;SDS011;44845;51.444;7.460;2023-12-20T05:04:42;12.18;;;5.35;;
59054;SDS011;44845;51.444;7.460;2023-12-20T05:07:07;17.05;;;4.82;;
59054;SDS011;44845;51.444;7.460;2023-12-20T05:09:33;11.18;;;4.82;;
59054;SDS011;44845;51.444;7.460;2023-12-20T05:11:58;14.18;;;5.10;;
59054;SDS011;44845;51.444;7.460;2023-12-20T05:14:24;13.48;;;4.80;;
59054;SDS011;44845;51.444;7.460;2023-12-20T05:16:50;14.05;;;4.20;;
59054;SDS011;44845;51.444;7.460;2023-12-20T05:19:15;17.30;;;4.90;;
59054;SDS011;44845;51.444;7.460;2023-12-20T05:21:40;14.90;;;5.15;;
59054;SDS011;44845;51.444;7.460;2023-12-20T05:24:06;15.80;;;5.50;;
59054;SDS011;44845;51.444;7.460;2023-12-20T05:26:32;11.93;;;4.50;;
59054;SDS011;44845;51.444;7.460;2023-12-20T05:28:57;14.18;;;5.07;;
59054;SDS011;44845;51.444;7.460;2023-12-20T05:31:23;13.55;;;4.90;;
59054;SDS011;44845;51.444;7.460;2023-12-20T05:33:48;16.73;;;5.00;;
59054;SDS011;44845;51.444;7.460;2023-12-20T05:36:13;14.65;;;5.15;;
59054;SDS011;44845;51.444;7.460;2023-12-20T05:38:40;24.30;;;6.13;;
59054;SDS011;44845;51.444;7.460;2023-12-20T05:41:05;14.57;;;4.90;;
59054;SDS011;44845;51.444;7.460;2023-12-20T05:43:31;16.60;;;4.93;;
59054;SDS011;44845;51.444;7.460;2023-12-20T05:45:56;17.25;;;5.30;;
59054;SDS011;44845;51.444;7.460;2023-12-20T05:48:21;10.15;;;5.03;;
59054;SDS011;44845;51.444;7.460;2023-12-20T05:50:47;15.63;;;5.03;;
59054;SDS011;44845;51.444;7.460;2023-12-20T05:53:14;11.20;;;4.25;;
59054;SDS011;44845;51.444;7.460;2023-12-20T05:55:39;19.42;;;4.63;;
59054;SDS011;44845;51.444;7.460;2023-12-20T05:58:05;17.52;;;4.13;;
59054;SDS011;44845;51.444;7.460;2023-12-20T06:00:30;12.40;;;4.20;;
59054;SDS011;44845;51.444;7.460;2023-12-20T06:02:55;13.98;;;4.68;;
59054;SDS011;44845;51.444;7.460;2023-12-20T06:05:21;11.60;;;4.07;;
59054;SDS011;44845;51.444;7.460;2023-12-20T06:07:46;14.52;;;4.30;;
59054;SDS011;44845;51.444;7.460;2023-12-20T06:10:13;14.18;;;4.13;;
59054;SDS011;44845;51.444;7.460;2023-12-20T06:12:38;18.17;;;4.60;;
59054;SDS011;44845;51.444;7.460;2023-12-20T06:15:04;11.52;;;4.65;;
59054;SDS011;44845;51.444;7.460;2023-12-20T06:17:30;13.70;;;4.38;;
59054;SDS011;44845;51.444;7.460;2023-12-20T06:19:56;17.40;;;5.03;;
59054;SDS011;44845;51.444;7.460;2023-12-20T06:22:22;14.95;;;4.65;;
59054;SDS011;44845;51.444;7.460;2023-12-20T06:24:47;14.65;;;4.50;;
59054;SDS011;44845;51.444;7.460;2023-12-20T06:27:12;13.68;;;5.00;;
59054;SDS011;44845;51.444;7.460;2023-12-20T06:29:38;16.40;;;4.88;;
59054;SDS011;44845;51.444;7.460;2023-12-20T06:32:03;17.95;;;4.30;;
59054;SDS011;44845;51.444;7.460;2023-12-20T06:34:29;14.50;;;4.63;;
59054;SDS011;44845;51.444;7.460;2023-12-20T06:36:54;20.83;;;5.68;;
59054;SDS011;44845;51.444;7.460;2023-12-20T06:39:20;16.10;;;4.95;;
59054;SDS011;44845;51.444;7.460;2023-12-20T06:41:45;14.38;;;4.57;;
59054;SDS011;44845;51.444;7.460;2023-12-20T06:44:10;16.38;;;5.05;;
59054;SDS011;44845;51.444;7.460;2023-12-20T06:46:36;10.88;;;3.85;;
59054;SDS011;44845;51.444;7.460;2023-12-20T06:49:01;19.27;;;4.50;;
59054;SDS011;44845;51.444;7.460;2023-12-20T06:51:27;16.58;;;4.68;;
59054;SDS011;44845;51.444;7.460;2023-12-20T06:53:53;18.25;;;4.32;;
59054;SDS011;44845;51.444;7.460;2023-12-20T06:56:18;16.25;;;4.57;;
59054;SDS011;44845;51.444;7.460;2023-12-20T06:58:43;17.52;;;4.70;;
59054;SDS011;44845;51.444;7.460;2023-12-20T07:01:15;13.13;;;4.28;;
59054;SDS011;44845;51.444;7.460;2023-12-20T07:03:41;15.95;;;4.25;;
59054;SDS011;44845;51.444;7.460;2023-12-20T07:06:06;17.50;;;4.32;;
59054;SDS011;44845;51.444;7.460;2023-12-20T07:08:32;14.15;;;4.32;;
59054;SDS011;44845;51.444;7.460;2023-12-20T07:10:58;16.92;;;4.13;;
59054;SDS011;44845;51.444;7.460;2023-12-20T07:13:23;19.02;;;4.97;;
59054;SDS011;44845;51.444;7.460;2023-12-20T07:15:49;19.63;;;4.82;;
59054;SDS011;44845;51.444;7.460;2023-12-20T07:18:14;14.68;;;4.18;;
59054;SDS011;44845;51.444;7.460;2023-12-20T07:20:39;15.48;;;4.05;;
59054;SDS011;44845;51.444;7.460;2023-12-20T07:23:04;16.02;;;3.90;;
59054;SDS011;44845;51.444;7.460;2023-12-20T07:25:30;15.88;;;3.95;;
59054;SDS011;44845;51.444;7.460;2023-12-20T07:27:57;12.23;;;3.85;;
59054;SDS011;44845;51.444;7.460;2023-12-20T07:30:23;15.95;;;3.35;;
59054;SDS011;44845;51.444;7.460;2023-12-20T07:32:48;12.18;;;3.60;;
59054;SDS011;44845;51.444;7.460;2023-12-20T07:35:14;16.17;;;3.70;;
59054;SDS011;44845;51.444;7.460;2023-12-20T07:37:40;16.33;;;4.18;;
59054;SDS011;44845;51.444;7.460;2023-12-20T07:40:06;15.55;;;3.65;;
59054;SDS011;44845;51.444;7.460;2023-12-20T07:42:32;14.20;;;3.75;;
59054;SDS011;44845;51.444;7.460;2023-12-20T07:44:58;13.60;;;3.58;;
59054;SDS011;44845;51.444;7.460;2023-12-20T07:47:23;14.77;;;3.90;;
59054;SDS011;44845;51.444;7.460;2023-12-20T07:49:50;17.05;;;3.67;;
59054;SDS011;44845;51.444;7.460;2023-12-20T07:52:16;14.57;;;3.10;;
59054;SDS011;44845;51.444;7.460;2023-12-20T07:54:45;18.33;;;3.55;;
59054;SDS011;44845;51.444;7.460;2023-12-20T07:57:11;16.25;;;3.30;;
59054;SDS011;44845;51.444;7.460;2023-12-20T07:59:36;10.77;;;3.42;;
59054;SDS011;44845;51.444;7.460;2023-12-20T08:02:02;18.65;;;3.85;;
59054;SDS011;44845;51.444;7.460;2023-12-20T08:04:27;14.35;;;3.95;;
59054;SDS011;44845;51.444;7.460;2023-12-20T08:06:52;15.60;;;3.83;;
59054;SDS011;44845;51.444;7.460;2023-12-20T08:09:18;13.77;;;3.80;;
59054;SDS011;44845;51.444;7.460;2023-12-20T08:11:45;11.45;;;3.25;;
59054;SDS011;44845;51.444;7.460;2023-12-20T08:14:10;10.82;;;3.15;;
59054;SDS011;44845;51.444;7.460;2023-12-20T08:16:36;13.27;;;3.95;;
59054;SDS011;44845;51.444;7.460;2023-12-20T08:19:01;14.25;;;3.65;;
59054;SDS011;44845;51.444;7.460;2023-12-20T08:21:26;15.88;;;3.90;;
59054;SDS011;44845;51.444;7.460;2023-12-20T08:23:52;9.98;;;4.00;;
59054;SDS011;44845;51.444;7.460;2023-12-20T08:26:21;14.48;;;4.13;;
59054;SDS011;44845;51.444;7.460;2023-12-20T08:28:47;11.73;;;3.22;;
59054;SDS011;44845;51.444;7.460;2023-12-20T08:31:14;12.68;;;3.47;;
59054;SDS011;44845;51.444;7.460;2023-12-20T08:33:41;12.32;;;3.60;;
59054;SDS011;44845;51.444;7.460;2023-12-20T08:36:06;20.02;;;4.07;;
59054;SDS011;44845;51.444;7.460;2023-12-20T08:38:31;14.82;;;3.72;;
59054;SDS011;44845;51.444;7.460;2023-12-20T08:40:57;16.23;;;4.20;;
59054;SDS011;44845;51.444;7.460;2023-12-20T08:43:22;14.88;;;3.67;;
59054;SDS011;44845;51.444;7.460;2023-12-20T08:45:47;13.30;;;3.75;;
59054;SDS011;44845;51.444;7.460;2023-12-20T08:48:13;21.98;;;4.57;;
59054;SDS011;44845;51.444;7.460;2023-12-20T08:50:38;11.77;;;3.47;;
59054;SDS011;44845;51.444;7.460;2023-12-20T08:53:04;11.02;;;3.72;;
59054;SDS011;44845;51.444;7.460;2023-12-20T08:55:29;12.45;;;3.80;;
59054;SDS011;44845;51.444;7.460;2023-12-20T08:57:55;20.08;;;3.45;;
59054;SDS011;44845;51.444;7.460;2023-12-20T09:00:21;16.83;;;3.90;;
59054;SDS011;44845;51.444;7.460;2023-12-20T09:02:49;16.73;;;4.15;;
59054;SDS011;44845;51.444;7.460;2023-12-20T09:05:14;15.38;;;3.95;;
59054;SDS011;44845;51.444;7.460;2023-12-20T09:07:40;16.40;;;4.05;;
59054;SDS011;44845;51.444;7.460;2023-12-20T09:10:05;14.98;;;3.60;;
59054;SDS011;44845;51.444;7.460;2023-12-20T09:12:31;13.65;;;4.22;;
59054;SDS011;44845;51.444;7.460;2023-12-20T09:14:56;17.75;;;4.18;;
59054;SDS011;44845;51.444;7.460;2023-12-20T09:17:21;14.70;;;4.05;;
59054;SDS011;44845;51.444;7.460;2023-12-20T09:19:48;19.00;;;5.95;;
59054;SDS011;44845;51.444;7.460;2023-12-20T09:22:13;12.77;;;4.43;;
59054;SDS011;44845;51.444;7.460;2023-12-20T09:24:38;11.65;;;3.28;;
59054;SDS011;44845;51.444;7.460;2023-12-20T09:27:04;15.43;;;3.63;;
59054;SDS011;44845;51.444;7.460;2023-12-20T09:29:30;15.95;;;3.28;;
59054;SDS011;44845;51.444;7.460;2023-12-20T09:31:56;12.95;;;2.95;;
59054;SDS011;44845;51.444;7.460;2023-12-20T09:34:22;13.70;;;2.97;;
59054;SDS011;44845;51.444;7.460;2023-12-20T09:36:48;13.80;;;3.15;;
59054;SDS011;44845;51.444;7.460;2023-12-20T09:39:14;14.60;;;3.17;;
59054;SDS011;44845;51.444;7.460;2023-12-20T09:41:43;12.82;;;3.40;;
59054;SDS011;44845;51.444;7.460;2023-12-20T09:44:13;11.93;;;2.95;;
59054;SDS011;44845;51.444;7.460;2023-12-20T09:46:43;12.77;;;3.30;;
59054;SDS011;44845;51.444;7.460;2023-12-20T09:49:09;15.88;;;3.38;;
59054;SDS011;44845;51.444;7.460;2023-12-20T09:51:35;11.85;;;2.70;;
59054;SDS011;44845;51.444;7.460;2023-12-20T09:54:02;13.38;;;3.00;;
59054;SDS011;44845;51.444;7.460;2023-12-20T09:56:28;14.15;;;3.80;;
59054;SDS011;44845;51.444;7.460;2023-12-20T09:58:54;13.07;;;3.17;;
59054;SDS011;44845;51.444;7.460;2023-12-20T10:01:20;11.52;;;2.50;;
59054;SDS011;44845;51.444;7.460;2023-12-20T10:03:46;13.90;;;2.88;;
59054;SDS011;44845;51.444;7.460;2023-12-20T10:06:11;12.15;;;2.72;;
59054;SDS011;44845;51.444;7.460;2023-12-20T10:08:37;13.65;;;2.70;;
59054;SDS011;44845;51.444;7.460;2023-12-20T10:11:03;12.85;;;2.97;;
59054;SDS011;44845;51.444;7.460;2023-12-20T10:13:29;14.88;;;2.80;;
59054;SDS011;44845;51.444;7.460;2023-12-20T10:15:55;11.20;;;2.83;;
59054;SDS011;44845;51.444;7.460;2023-12-20T10:18:21;9.18;;;2.67;;
59054;SDS011;44845;51.444;7.460;2023-12-20T10:20:46;16.73;;;2.85;;
59054;SDS011;44845;51.444;7.460;2023-12-20T10:23:12;14.68;;;2.90;;
59054;SDS011;44845;51.444;7.460;2023-12-20T10:25:39;11.35;;;2.40;;
59054;SDS011;44845;51.444;7.460;2023-12-20T10:28:09;6.68;;;2.58;;
59054;SDS011;44845;51.444;7.460;2023-12-20T10:30:38;14.95;;;2.70;;
59054;SDS011;44845;51.444;7.460;2023-12-20T10:33:05;11.68;;;2.72;;
59054;SDS011;44845;51.444;7.460;2023-12-20T10:35:32;12.90;;;2.50;;
59054;SDS011;44845;51.444;7.460;2023-12-20T10:37:57;18.35;;;3.15;;
59054;SDS011;44845;51.444;7.460;2023-12-20T10:40:28;12.60;;;2.85;;
59054;SDS011;44845;51.444;7.460;2023-12-20T10:42:54;13.82;;;2.80;;
59054;SDS011;44845;51.444;7.460;2023-12-20T10:45:21;9.82;;;3.05;;
59054;SDS011;44845;51.444;7.460;2023-12-20T10:47:47;11.23;;;2.63;;
59054;SDS011;44845;51.444;7.460;2023-12-20T10:50:14;14.20;;;3.30;;
59054;SDS011;44845;51.444;7.460;2023-12-20T10:52:40;9.90;;;2.97;;
59054;SDS011;44845;51.444;7.460;2023-12-20T10:55:07;12.45;;;3.20;;
59054;SDS011;44845;51.444;7.460;2023-12-20T10:57:33;12.00;;;3.35;;
59054;SDS011;44845;51.444;7.460;2023-12-20T11:00:01;11.35;;;2.97;;
59054;SDS011;44845;51.444;7.460;2023-12-20T11:02:33;14.75;;;3.03;;
59054;SDS011;44845;51.444;7.460;2023-12-20T11:05:25;11.52;;;2.58;;
59054;SDS011;44845;51.444;7.460;2023-12-20T11:10:30;10.88;;;3.10;;
59054;SDS011;44845;51.444;7.460;2023-12-20T11:13:05;16.38;;;4.13;;
59054;SDS011;44845;51.444;7.460;2023-12-20T11:15:37;14.00;;;3.17;;
59054;SDS011;44845;51.444;7.460;2023-12-20T11:18:03;10.65;;;2.92;;
59054;SDS011;44845;51.444;7.460;2023-12-20T11:20:37;15.18;;;3.28;;
59054;SDS011;44845;51.444;7.460;2023-12-20T11:23:03;15.63;;;3.33;;
59054;SDS011;44845;51.444;7.460;2023-12-20T11:25:29;12.73;;;2.50;;
59054;SDS011;44845;51.444;7.460;2023-12-20T11:28:08;11.63;;;2.75;;
59054;SDS011;44845;51.444;7.460;2023-12-20T11:33:11;9.20;;;2.72;;
59054;SDS011;44845;51.444;7.460;2023-12-20T11:35:39;13.50;;;2.65;;
59054;SDS011;44845;51.444;7.460;2023-12-20T11:38:06;13.52;;;3.33;;
59054;SDS011;44845;51.444;7.460;2023-12-20T11:40:33;15.57;;;3.33;;
59054;SDS011;44845;51.444;7.460;2023-12-20T11:42:59;14.95;;;3.17;;
59054;SDS011;44845;51.444;7.460;2023-12-20T11:45:25;10.70;;;2.55;;
59054;SDS011;44845;51.444;7.460;2023-12-20T11:47:51;8.43;;;3.00;;
59054;SDS011;44845;51.444;7.460;2023-12-20T11:50:18;11.65;;;3.17;;
59054;SDS011;44845;51.444;7.460;2023-12-20T11:52:44;10.82;;;3.78;;
59054;SDS011;44845;51.444;7.460;2023-12-20T11:55:09;14.45;;;3.85;;
59054;SDS011;44845;51.444;7.460;2023-12-20T11:57:35;14.43;;;3.97;;
59054;SDS011;44845;51.444;7.460;2023-12-20T12:00:01;15.23;;;3.67;;
59054;SDS011;44845;51.444;7.460;2023-12-20T12:02:31;14.27;;;3.75;;
59054;SDS011;44845;51.444;7.460;2023-12-20T12:04:57;12.77;;;3.80;;
59054;SDS011;44845;51.444;7.460;2023-12-20T12:07:23;14.55;;;4.13;;
59054;SDS011;44845;51.444;7.460;2023-12-20T12:09:49;14.43;;;4.03;;
59054;SDS011;44845;51.444;7.460;2023-12-20T12:12:14;15.55;;;3.70;;
59054;SDS011;44845;51.444;7.460;2023-12-20T12:14:40;12.52;;;4.63;;
59054;SDS011;44845;51.444;7.460;2023-12-20T12:17:12;13.57;;;3.55;;
59054;SDS011;44845;51.444;7.460;2023-12-20T12:19:38;12.88;;;3.90;;
59054;SDS011;44845;51.444;7.460;2023-12-20T12:22:08;11.88;;;4.38;;
59054;SDS011;44845;51.444;7.460;2023-12-20T12:24:41;10.07;;;3.42;;
59054;SDS011;44845;51.444;7.460;2023-12-20T12:27:08;15.73;;;4.43;;
59054;SDS011;44845;51.444;7.460;2023-12-20T12:29:34;14.60;;;4.03;;
59054;SDS011;44845;51.444;7.460;2023-12-20T12:32:00;14.95;;;3.97;;
59054;SDS011;44845;51.444;7.460;2023-12-20T12:34:29;10.20;;;3.25;;
59054;SDS011;44845;51.444;7.460;2023-12-20T12:36:54;10.75;;;3.33;;
59054;SDS011;44845;51.444;7.460;2023-12-20T12:39:20;14.15;;;3.75;;
59054;SDS011;44845;51.444;7.460;2023-12-20T12:41:45;13.18;;;3.90;;
59054;SDS011;44845;51.444;7.460;2023-12-20T12:44:11;12.88;;;4.22;;
59054;SDS011;44845;51.444;7.460;2023-12-20T12:46:36;13.85;;;3.53;;
59054;SDS011;44845;51.444;7.460;2023-12-20T12:49:01;10.07;;;3.22;;
59054;SDS011;44845;51.444;7.460;2023-12-20T12:51:27;9.75;;;3.38;;
59054;SDS011;44845;51.444;7.460;2023-12-20T12:53:52;9.10;;;3.25;;
59054;SDS011;44845;51.444;7.460;2023-12-20T12:56:18;7.57;;;2.85;;
59054;SDS011;44845;51.444;7.460;2023-12-20T12:58:43;7.43;;;3.15;;
59054;SDS011;44845;51.444;7.460;2023-12-20T13:01:09;12.18;;;3.17;;
59054;SDS011;44845;51.444;7.460;2023-12-20T13:03:35;8.20;;;3.40;;
59054;SDS011;44845;51.444;7.460;2023-12-20T13:06:00;13.40;;;3.70;;
59054;SDS011;44845;51.444;7.460;2023-12-20T13:08:26;14.55;;;3.50;;
59054;SDS011;44845;51.444;7.460;2023-12-20T13:10:51;14.20;;;3.30;;
59054;SDS011;44845;51.444;7.460;2023-12-20T13:13:17;14.30;;;3.78;;
59054;SDS011;44845;51.444;7.460;2023-12-20T13:15:42;12.30;;;3.50;;
59054;SDS011;44845;51.444;7.460;2023-12-20T13:18:13;14.65;;;3.67;;
59054;SDS011;44845;51.444;7.460;2023-12-20T13:20:38;13.48;;;4.20;;
59054;SDS011;44845;51.444;7.460;2023-12-20T13:23:05;9.52;;;3.15;;
59054;SDS011;44845;51.444;7.460;2023-12-20T13:25:30;9.85;;;3.40;;
59054;SDS011;44845;51.444;7.460;2023-12-20T13:27:56;10.68;;;3.35;;
59054;SDS011;44845;51.444;7.460;2023-12-20T13:30:21;13.02;;;3.72;;
59054;SDS011;44845;51.444;7.460;2023-12-20T13:32:46;11.30;;;3.10;;
59054;SDS011;44845;51.444;7.460;2023-12-20T13:35:12;13.27;;;3.45;;
59054;SDS011;44845;51.444;7.460;2023-12-20T13:37:38;14.30;;;4.05;;
59054;SDS011;44845;51.444;7.460;2023-12-20T13:40:03;9.60;;;3.25;;
59054;SDS011;44845;51.444;7.460;2023-12-20T13:42:29;6.85;;;3.42;;
59054;SDS011;44845;51.444;7.460;2023-12-20T13:44:55;11.02;;;3.50;;
59054;SDS011;44845;51.444;7.460;2023-12-20T13:47:20;10.50;;;3.67;;
59054;SDS011;44845;51.444;7.460;2023-12-20T13:49:46;16.13;;;3.78;;
59054;SDS011;44845;51.444;7.460;2023-12-20T13:52:13;11.50;;;3.53;;
59054;SDS011;44845;51.444;7.460;2023-12-20T13:54:39;10.93;;;3.53;;
59054;SDS011;44845;51.444;7.460;2023-12-20T13:57:04;12.07;;;3.70;;
59054;SDS011;44845;51.444;7.460;2023-12-20T13:59:29;11.07;;;3.17;;
59054;SDS011;44845;51.444;7.460;2023-12-20T14:01:55;10.88;;;2.92;;
59054;SDS011;44845;51.444;7.460;2023-12-20T14:04:22;9.00;;;2.80;;
59054;SDS011;44845;51.444;7.460;2023-12-20T14:06:47;6.68;;;2.13;;
59054;SDS011;44845;51.444;7.460;2023-12-20T14:09:12;5.78;;;2.20;;
59054;SDS011;44845;51.444;7.460;2023-12-20T14:11:38;5.85;;;2.40;;
59054;SDS011;44845;51.444;7.460;2023-12-20T14:14:06;5.10;;;2.08;;
59054;SDS011;44845;51.444;7.460;2023-12-20T14:16:32;6.00;;;2.30;;
59054;SDS011;44845;51.444;7.460;2023-12-20T14:18:58;4.75;;;2.30;;
59054;SDS011;44845;51.444;7.460;2023-12-20T14:21:23;9.55;;;2.72;;
59054;SDS011;44845;51.444;7.460;2023-12-20T14:23:49;6.15;;;2.35;;
59054;SDS011;44845;51.444;7.460;2023-12-20T14:26:14;10.20;;;2.70;;
59054;SDS011;44845;51.444;7.460;2023-12-20T14:28:41;4.68;;;2.33;;
59054;SDS011;44845;51.444;7.460;2023-12-20T14:31:07;6.00;;;2.50;;
59054;SDS011;44845;51.444;7.460;2023-12-20T14:33:33;11.75;;;3.55;;
59054;SDS011;44845;51.444;7.460;2023-12-20T14:35:58;11.07;;;2.63;;